Time;durP1;ratioP1;P1;durP2;ratioP2;P2;SDS_P1;SDS_P2;PMS_P1;PMS_P2;Temp;Humidity;BMP_temperature;BMP_pressure;BME280_temperature;BME280_humidity;BME280_pressure;Samples;Min_cycle;Max_cycle;Signal;HPM_P1;HPM_P2
2023/11/07 00:00:41;;;;;;;;;;;;;;;;;;2204678;59;2164;-20
2023/11/07 00:03:11;;;;;;;;;;;;;;;;;;2206104;59;3735;-20
2023/11/07 00:05:41;;;;;;;;;;;;;;;;;;2204187;59;3382;-20
2023/11/07 00:08:11;;;;;;;;;;;;;;;;;;2205375;67;2636;-20
2023/11/07 00:10:42;;;;;;;;;;;;;;;;;;2203566;53;2405;-25
2023/11/07 00:13:12;;;;;;;;;;;;;;;;;;2202137;59;2566;-23
2023/11/07 00:15:43;;;;;;;;;;;;;;;;;;2201578;59;2671;-23
2023/11/07 00:18:13;;;;;;;;;;;;;;;;;;2205065;58;1940;-23
2023/11/07 00:20:43;;;;;;;;;;;;;;;;;;2198325;67;2766;-23
2023/11/07 00:23:14;;;;;;;;;;;;;;;;;;2201997;67;3509;-23
2023/11/07 00:25:44;;;;;;;;;;;;;;;;;;2201210;67;2620;-23
2023/11/07 00:28:14;;;;;;;;;;;;;;;;;;2203592;59;2650;-25
2023/11/07 00:30:45;;;;;;;;;;;;;;;;;;2201543;59;2415;-25
2023/11/07 00:33:15;;;;;;;;;;;;;;;;;;2199893;67;3830;-26
2023/11/07 00:35:46;;;;;;;;;;;;;;;;;;2201357;67;3268;-25
2023/11/07 00:38:16;;;;;;;;;;;;;;;;;;2201787;59;3928;-25
2023/11/07 00:40:47;;;;;;;;;;;;;;;;;;2201097;59;2257;-23
2023/11/07 00:43:17;;;;;;;;;;;;;;;;;;2202069;59;2007;-25
2023/11/07 00:45:48;;;;;;;;;;;;;;;;;;2201612;59;2873;-25
2023/11/07 00:48:18;;;;;;;;;;;;;;;;;;2202018;67;2868;-26
2023/11/07 00:50:49;;;;;;;;;;;;;;;;;;2198383;59;1990;-25
2023/11/07 00:53:20;;;;;;;;;;;;;;;;;;2202427;67;3999;-25
2023/11/07 00:55:50;;;;;;;;;;;;;;;;;;2199484;59;3587;-25
2023/11/07 00:58:21;;;;;;;;;;;;;;;;;;2203671;59;2750;-25
2023/11/07 01:00:51;;;;;;;;;;;;;;;;;;2201419;67;3270;-25
2023/11/07 01:03:21;;;;;;;;;;;;;;;;;;2203571;59;2348;-26
2023/11/07 01:05:52;;;;;;;;;;;;;;;;;;2203196;59;2755;-25
2023/11/07 01:08:22;;;;;;;;;;;;;;;;;;2202680;67;3812;-23
2023/11/07 01:10:53;;;;;;;;;;;;;;;;;;2202827;59;3383;-25
2023/11/07 01:13:23;;;;;;;;;;;;;;;;;;2201969;67;2622;-25
2023/11/07 01:15:53;;;;;;;;;;;;;;;;;;2201344;59;3523;-25
2023/11/07 01:18:24;;;;;;;;;;;;;;;;;;2202719;59;2565;-25
2023/11/07 01:20:54;;;;;;;;;;;;;;;;;;2199992;67;2512;-26
2023/11/07 01:23:24;;;;;;;;;;;;;;;;;;2201939;67;3547;-25
2023/11/07 01:25:55;;;;;;;;;;;;;;;;;;2201195;63;3216;-25
2023/11/07 01:28:25;;;;;;;;;;;;;;;;;;2202255;59;2291;-25
2023/11/07 01:30:56;;;;;;;;;;;;;;;;;;2202720;59;2757;-25
2023/11/07 01:33:26;;;;;;;;;;;;;;;;;;2202386;59;2530;-23
2023/11/07 01:35:56;;;;;;;;;;;;;;;;;;2202880;59;2545;-25
2023/11/07 01:38:27;;;;;;;;;;;;;;;;;;2200024;59;2673;-25
2023/11/07 01:40:58;;;;;;;;;;;;;;;;;;2203947;59;2212;-25
2023/11/07 01:43:28;;;;;;;;;;;;;;;;;;2203408;67;2656;-24
2023/11/07 01:46:02;;;;;;;;;;;;;;;;;;2203093;67;3246;-24
2023/11/07 01:48:33;;;;;;;;;;;;;;;;;;2202626;67;3684;-24
2023/11/07 01:51:04;;;;;;;;;;;;;;;;;;2200997;67;2436;-24
2023/11/07 01:53:34;;;;;;;;;;;;;;;;;;2201623;67;2695;-24
2023/11/07 01:56:05;;;;;;;;;;;;;;;;;;2203407;67;1291;-25
2023/11/07 01:58:35;;;;;;;;;;;;;;;;;;2202330;59;2143;-25
2023/11/07 02:01:05;;;;;;;;;;;;;;;;;;2203365;67;1506;-25
2023/11/07 02:03:37;;;;;;;;;;;;;;;;;;2202667;67;1210;-26
2023/11/07 02:06:07;;;;;;;;;;;;;;;;;;2203075;67;1940;-26
2023/11/07 02:08:37;;;;;;;;;;;;;;;;;;2202453;67;1789;-25
2023/11/07 02:11:08;;;;;;;;;;;;;;;;;;2205364;59;1438;-26
2023/11/07 02:13:38;;;;;;;;;;;;;;;;;;2202202;59;1312;-26
2023/11/07 02:16:09;;;;;;;;;;;;;;;;;;2203421;59;1388;-26
2023/11/07 02:18:39;;;;;;;;;;;;;;;;;;2202366;67;1574;-26
2023/11/07 02:21:09;;;;;;;;;;;;;;;;;;2203341;67;1555;-25
2023/11/07 02:23:39;;;;;;;;;;;;;;;;;;2201355;67;1553;-26
2023/11/07 02:26:10;;;;;;;;;;;;;;;;;;2202494;59;1998;-25
2023/11/07 02:28:40;;;;;;;;;;;;;;;;;;2202139;59;1869;-25
2023/11/07 02:31:11;;;;;;;;;;;;;;;;;;2204127;59;2547;-26
2023/11/07 02:33:41;;;;;;;;;;;;;;;;;;2201437;59;1977;-25
2023/11/07 02:36:12;;;;;;;;;;;;;;;;;;2202207;59;1816;-25
2023/11/07 02:38:42;;;;;;;;;;;;;;;;;;2201266;59;1268;-24
2023/11/07 02:41:12;;;;;;;;;;;;;;;;;;2203768;59;1911;-24
2023/11/07 02:43:43;;;;;;;;;;;;;;;;;;2201045;59;1659;-23
2023/11/07 02:46:13;;;;;;;;;;;;;;;;;;2202246;67;1990;-24
2023/11/07 02:48:43;;;;;;;;;;;;;;;;;;2202566;67;1500;-24
2023/11/07 02:51:17;;;;;;;;;;;;;;;;;;2203685;67;1414;-24
2023/11/07 02:53:47;;;;;;;;;;;;;;;;;;2201456;67;1656;-24
2023/11/07 02:56:17;;;;;;;;;;;;;;;;;;2203046;67;1278;-24
2023/11/07 02:58:48;;;;;;;;;;;;;;;;;;2202802;67;1301;-25
2023/11/07 03:01:21;;;;;;;;;;;;;;;;;;2201970;67;1311;-23
2023/11/07 03:03:54;;;;;;;;;;;;;;;;;;2201944;59;2316;-25
2023/11/07 03:06:25;;;;;;;;;;;;;;;;;;2200431;67;1684;-26
2023/11/07 03:08:56;;;;;;;;;;;;;;;;;;2200716;59;1245;-26
2023/11/07 03:11:26;;;;;;;;;;;;;;;;;;2202473;59;1507;-26
2023/11/07 03:13:56;;;;;;;;;;;;;;;;;;2204285;66;1928;-26
2023/11/07 03:16:27;;;;;;;;;;;;;;;;;;2202906;59;2316;-26
2023/11/07 03:18:57;;;;;;;;;;;;;;;;;;2203036;67;1435;-23
2023/11/07 03:21:27;;;;;;;;;;;;;;;;;;2202835;67;1207;-25
2023/11/07 03:23:58;;;;;;;;;;;;;;;;;;2200560;67;1958;-26
2023/11/07 03:26:28;;;;;;;;;;;;;;;;;;2203423;67;1568;-26
2023/11/07 03:28:58;;;;;;;;;;;;;;;;;;2202025;59;2260;-26
2023/11/07 03:31:28;;;;;;;;;;;;;;;;;;2203060;67;1336;-26
2023/11/07 03:33:59;;;;;;;;;;;;;;;;;;2201959;59;1726;-26
2023/11/07 03:36:29;;;;;;;;;;;;;;;;;;2202886;59;1424;-26
2023/11/07 03:39:00;;;;;;;;;;;;;;;;;;2204422;59;1555;-26
2023/11/07 03:41:30;;;;;;;;;;;;;;;;;;2203005;59;1528;-26
2023/11/07 03:44:00;;;;;;;;;;;;;;;;;;2201471;59;1992;-26
2023/11/07 03:46:30;;;;;;;;;;;;;;;;;;2202688;67;2588;-26
2023/11/07 03:49:01;;;;;;;;;;;;;;;;;;2201116;67;1968;-25
2023/11/07 03:51:31;;;;;;;;;;;;;;;;;;2201963;67;1270;-25
2023/11/07 03:54:02;;;;;;;;;;;;;;;;;;2202056;67;1755;-26
2023/11/07 03:56:32;;;;;;;;;;;;;;;;;;2201854;67;1146;-26
2023/11/07 03:59:03;;;;;;;;;;;;;;;;;;2202080;67;1400;-25
2023/11/07 04:01:35;;;;;;;;;;;;;;;;;;2202956;67;1407;-26
2023/11/07 04:04:06;;;;;;;;;;;;;;;;;;2201815;59;2464;-26
2023/11/07 04:06:36;;;;;;;;;;;;;;;;;;2202061;67;1355;-26
2023/11/07 04:09:07;;;;;;;;;;;;;;;;;;2202321;67;1651;-25
2023/11/07 04:11:37;;;;;;;;;;;;;;;;;;2201502;59;1626;-26
2023/11/07 04:14:08;;;;;;;;;;;;;;;;;;2202104;67;1840;-26
2023/11/07 04:16:38;;;;;;;;;;;;;;;;;;2201831;67;1169;-26
2023/11/07 04:19:09;;;;;;;;;;;;;;;;;;2200106;67;1700;-26
2023/11/07 04:21:39;;;;;;;;;;;;;;;;;;2201953;59;1296;-26
2023/11/07 04:24:09;;;;;;;;;;;;;;;;;;2198948;67;2034;-24
2023/11/07 04:26:40;;;;;;;;;;;;;;;;;;2201554;67;2044;-24
2023/11/07 04:29:11;;;;;;;;;;;;;;;;;;2199986;59;2271;-24
2023/11/07 04:31:41;;;;;;;;;;;;;;;;;;2202420;59;2001;-25
2023/11/07 04:34:11;;;;;;;;;;;;;;;;;;2203291;67;1262;-24
2023/11/07 04:36:41;;;;;;;;;;;;;;;;;;2202439;67;1429;-24
2023/11/07 04:39:12;;;;;;;;;;;;;;;;;;2202816;59;2320;-25
2023/11/07 04:41:42;;;;;;;;;;;;;;;;;;2201963;59;1877;-26
2023/11/07 04:44:12;;;;;;;;;;;;;;;;;;2203248;59;1949;-24
2023/11/07 04:46:43;;;;;;;;;;;;;;;;;;2202482;67;1550;-24
2023/11/07 04:49:14;;;;;;;;;;;;;;;;;;2204332;67;1718;-24
2023/11/07 04:51:44;;;;;;;;;;;;;;;;;;2202708;67;1311;-24
2023/11/07 04:54:14;;;;;;;;;;;;;;;;;;2202973;67;1212;-24
2023/11/07 04:56:44;;;;;;;;;;;;;;;;;;2198158;67;2123;-23
2023/11/07 04:59:15;;;;;;;;;;;;;;;;;;2203383;67;1247;-24
2023/11/07 05:01:48;;;;;;;;;;;;;;;;;;2201528;67;1356;-24
2023/11/07 05:04:19;;;;;;;;;;;;;;;;;;2201619;59;2637;-25
2023/11/07 05:06:49;;;;;;;;;;;;;;;;;;2202336;59;1625;-24
2023/11/07 05:09:20;;;;;;;;;;;;;;;;;;2202697;67;1435;-24
2023/11/07 05:11:50;;;;;;;;;;;;;;;;;;2200623;59;6090;-24
2023/11/07 05:14:21;;;;;;;;;;;;;;;;;;2201426;67;4318;-24
2023/11/07 05:16:51;;;;;;;;;;;;;;;;;;2200399;62;3697;-24
2023/11/07 05:19:21;;;;;;;;;;;;;;;;;;2202457;67;3542;-26
2023/11/07 05:21:51;;;;;;;;;;;;;;;;;;2201071;67;2215;-24
2023/11/07 05:24:23;;;;;;;;;;;;;;;;;;2202543;67;2199;-26
2023/11/07 05:26:53;;;;;;;;;;;;;;;;;;2198295;67;2422;-26
2023/11/07 05:29:23;;;;;;;;;;;;;;;;;;2201555;59;2624;-23
2023/11/07 05:31:53;;;;;;;;;;;;;;;;;;2201358;59;2798;-24
2023/11/07 05:34:24;;;;;;;;;;;;;;;;;;2202112;67;4272;-23
2023/11/07 05:36:55;;;;;;;;;;;;;;;;;;2201583;59;3774;-25
2023/11/07 05:39:27;;;;;;;;;;;;;;;;;;2202257;59;2423;-25
2023/11/07 05:41:58;;;;;;;;;;;;;;;;;;2201227;59;2560;-25
2023/11/07 05:44:29;;;;;;;;;;;;;;;;;;2202942;59;3944;-26
2023/11/07 05:46:59;;;;;;;;;;;;;;;;;;2201718;67;3731;-25
2023/11/07 05:49:29;;;;;;;;;;;;;;;;;;2202651;67;3616;-26
2023/11/07 05:51:59;;;;;;;;;;;;;;;;;;2202269;67;3830;-25
2023/11/07 05:54:29;;;;;;;;;;;;;;;;;;2196293;67;4151;-25
2023/11/07 05:57:00;;;;;;;;;;;;;;;;;;2201784;67;2632;-26
2023/11/07 05:59:30;;;;;;;;;;;;;;;;;;2202733;59;1853;-26
2023/11/07 06:02:00;;;;;;;;;;;;;;;;;;2202298;59;2534;-26
2023/11/07 06:04:32;;;;;;;;;;;;;;;;;;2203263;67;2260;-24
2023/11/07 06:07:03;;;;;;;;;;;;;;;;;;2203768;59;2684;-26
2023/11/07 06:09:33;;;;;;;;;;;;;;;;;;2209680;53;2369;-18
2023/11/07 06:12:03;;;;;;;;;;;;;;;;;;2205585;59;2494;-19
2023/11/07 06:14:34;;;;;;;;;;;;;;;;;;2207440;59;2254;-19
2023/11/07 06:17:04;;;;;;;;;;;;;;;;;;2206280;67;2769;-19
2023/11/07 06:19:34;;;;;;;;;;;;;;;;;;2207047;59;1769;-19
2023/11/07 06:22:05;;;;;;;;;;;;;;;;;;2205316;59;2164;-19
2023/11/07 06:24:35;;;;;;;;;;;;;;;;;;2206354;67;4114;-19
2023/11/07 06:27:05;;;;;;;;;;;;;;;;;;2205339;59;4118;-19
2023/11/07 06:29:39;;;;;;;;;;;;;;;;;;2206086;59;3996;-19
2023/11/07 06:32:09;;;;;;;;;;;;;;;;;;2205454;59;2718;-19
2023/11/07 06:34:40;;;;;;;;;;;;;;;;;;2205866;67;2396;-19
2023/11/07 06:37:12;;;;;;;;;;;;;;;;;;2205385;59;2787;-19
2023/11/07 06:39:42;;;;;;;;;;;;;;;;;;2205229;59;2648;-19
2023/11/07 06:42:12;;;;;;;;;;;;;;;;;;2204487;67;2868;-19
2023/11/07 06:44:44;;;;;;;;;;;;;;;;;;2205439;59;2584;-19
2023/11/07 06:47:14;;;;;;;;;;;;;;;;;;2204268;59;1949;-19
2023/11/07 06:49:44;;;;;;;;;;;;;;;;;;2204810;59;2607;-19
2023/11/07 06:52:14;;;;;;;;;;;;;;;;;;2204928;67;2555;-19
2023/11/07 06:54:46;;;;;;;;;;;;;;;;;;2205369;59;2433;-19
2023/11/07 06:57:16;;;;;;;;;;;;;;;;;;2204617;60;2849;-18
2023/11/07 06:59:47;;;;;;;;;;;;;;;;;;2205633;59;2347;-19
2023/11/07 07:02:17;;;;;;;;;;;;;;;;;;2205304;59;2883;-19
2023/11/07 07:04:47;;;;;;;;;;;;;;;;;;2204764;59;2436;-19
2023/11/07 07:07:19;;;;;;;;;;;;;;;;;;2205390;59;2732;-19
2023/11/07 07:09:49;;;;;;;;;;;;;;;;;;2204703;59;3379;-18
2023/11/07 07:12:21;;;;;;;;;;;;;;;;;;2205718;59;2722;-19
2023/11/07 07:14:51;;;;;;;;;;;;;;;;;;2204449;67;2580;-19
2023/11/07 07:17:22;;;;;;;;;;;;;;;;;;2205971;59;2409;-19
2023/11/07 07:19:53;;;;;;;;;;;;;;;;;;2205149;59;3061;-19
2023/11/07 07:22:27;;;;;;;;;;;;;;;;;;2204396;67;2416;-19
2023/11/07 07:25:05;;;;;;;;;;;;;;;;;;2203565;59;2821;-19
2023/11/07 07:27:35;;;;;;;;;;;;;;;;;;2205353;59;2429;-19
2023/11/07 07:30:06;;;;;;;;;;;;;;;;;;2204567;59;2787;-19
2023/11/07 07:32:38;;;;;;;;;;;;;;;;;;2206009;59;2146;-19
2023/11/07 07:35:15;;;;;;;;;;;;;;;;;;2205478;59;2522;-19
2023/11/07 07:37:51;;;;;;;;;;;;;;;;;;2208372;59;3628;-19
2023/11/07 07:40:25;;;;;;;;;;;;;;;;;;2205268;59;2220;-19
2023/11/07 07:42:58;;;;;;;;;;;;;;;;;;2204077;59;2355;-18
2023/11/07 07:45:29;;;;;;;;;;;;;;;;;;2206466;59;2316;-19
2023/11/07 07:47:59;;;;;;;;;;;;;;;;;;2205222;59;2557;-19
2023/11/07 07:50:30;;;;;;;;;;;;;;;;;;2204964;59;3401;-19
2023/11/07 07:53:06;;;;;;;;;;;;;;;;;;2204391;59;3788;-19
2023/11/07 07:55:42;;;;;;;;;;;;;;;;;;2204970;59;2490;-19
2023/11/07 07:58:18;;;;;;;;;;;;;;;;;;2203767;59;2142;-19
2023/11/07 08:00:52;;;;;;;;;;;;;;;;;;2204534;67;3738;-19
2023/11/07 08:03:22;;;;;;;;;;;;;;;;;;2205607;59;2424;-19
2023/11/07 08:05:53;;;;;;;;;;;;;;;;;;2201660;59;3737;-19
2023/11/07 08:08:23;;;;;;;;;;;;;;;;;;2204997;59;2568;-19
2023/11/07 08:10:57;;;;;;;;;;;;;;;;;;2205496;59;2747;-19
2023/11/07 08:13:28;;;;;;;;;;;;;;;;;;2205098;59;2290;-19
2023/11/07 08:15:59;;;;;;;;;;;;;;;;;;2205292;67;2586;-18
2023/11/07 08:18:29;;;;;;;;;;;;;;;;;;2205205;67;1962;-19
2023/11/07 08:20:59;;;;;;;;;;;;;;;;;;2204781;59;2460;-19
2023/11/07 08:23:30;;;;;;;;;;;;;;;;;;2205095;67;4158;-19
2023/11/07 08:26:00;;;;;;;;;;;;;;;;;;2204599;59;3258;-19
2023/11/07 08:28:30;;;;;;;;;;;;;;;;;;2206455;59;2685;-19
2023/11/07 08:31:01;;;;;;;;;;;;;;;;;;2204210;59;2456;-19
2023/11/07 08:33:31;;;;;;;;;;;;;;;;;;2201031;67;3806;-19
2023/11/07 08:36:01;;;;;;;;;;;;;;;;;;2204130;59;2636;-19
2023/11/07 08:38:31;;;;;;;;;;;;;;;;;;2205298;59;2502;-18
2023/11/07 08:41:01;;;;;;;;;;;;;;;;;;2208298;59;2782;-19
2023/11/07 08:43:32;;;;;;;;;;;;;;;;;;2204948;59;2505;-18
2023/11/07 08:46:02;;;;;;;;;;;;;;;;;;2203895;59;3399;-19
2023/11/07 08:48:34;;;;;;;;;;;;;;;;;;2205012;59;2501;-19
2023/11/07 08:51:04;;;;;;;;;;;;;;;;;;2204495;67;3442;-19
2023/11/07 08:53:35;;;;;;;;;;;;;;;;;;2205078;67;2167;-19
2023/11/07 08:56:05;;;;;;;;;;;;;;;;;;2204192;59;3559;-19
2023/11/07 08:58:35;;;;;;;;;;;;;;;;;;2205261;67;3525;-19
2023/11/07 09:01:09;;;;;;;;;;;;;;;;;;2204266;59;4076;-19
2023/11/07 09:03:40;;;;;;;;;;;;;;;;;;2205075;59;2720;-19
2023/11/07 09:06:10;;;;;;;;;;;;;;;;;;2201523;59;3448;-19
2023/11/07 09:08:41;;;;;;;;;;;;;;;;;;2204753;59;4674;-19
2023/11/07 09:11:11;;;;;;;;;;;;;;;;;;2203539;59;2883;-19
2023/11/07 09:13:42;;;;;;;;;;;;;;;;;;2201009;59;2734;-19
2023/11/07 09:16:13;;;;;;;;;;;;;;;;;;2201751;67;2479;-19
2023/11/07 09:18:43;;;;;;;;;;;;;;;;;;2205100;59;2500;-19
2023/11/07 09:21:14;;;;;;;;;;;;;;;;;;2204644;59;3373;-19
2023/11/07 09:23:44;;;;;;;;;;;;;;;;;;2206034;59;2224;-19
2023/11/07 09:26:14;;;;;;;;;;;;;;;;;;2202249;59;2648;-19
2023/11/07 09:28:45;;;;;;;;;;;;;;;;;;2204729;59;2715;-19
2023/11/07 09:31:15;;;;;;;;;;;;;;;;;;2204002;59;2474;-19
2023/11/07 09:33:46;;;;;;;;;;;;;;;;;;2204157;59;2698;-19
2023/11/07 09:36:16;;;;;;;;;;;;;;;;;;2203841;59;3608;-19
2023/11/07 09:38:46;;;;;;;;;;;;;;;;;;2204502;59;2544;-19
2023/11/07 09:41:17;;;;;;;;;;;;;;;;;;2202909;59;3574;-19
2023/11/07 09:43:49;;;;;;;;;;;;;;;;;;2202571;59;3510;-19
2023/11/07 09:46:20;;;;;;;;;;;;;;;;;;2202588;59;2338;-19
2023/11/07 09:48:51;;;;;;;;;;;;;;;;;;2205376;59;2459;-19
2023/11/07 09:51:21;;;;;;;;;;;;;;;;;;2203001;67;2212;-19
2023/11/07 09:53:53;;;;;;;;;;;;;;;;;;2204665;59;2097;-18
2023/11/07 09:56:24;;;;;;;;;;;;;;;;;;2200409;59;3090;-19
2023/11/07 09:59:02;;;;;;;;;;;;;;;;;;2203022;67;3491;-18
2023/11/07 10:01:33;;;;;;;;;;;;;;;;;;2204924;59;3587;-19
2023/11/07 10:04:03;;;;;;;;;;;;;;;;;;2203851;59;2450;-19
2023/11/07 10:06:34;;;;;;;;;;;;;;;;;;2203037;59;3438;-19
2023/11/07 10:09:04;;;;;;;;;;;;;;;;;;2202343;67;3208;-19
2023/11/07 10:11:45;;;;;;;;;;;;;;;;;;2204784;59;3697;-19
2023/11/07 10:14:20;;;;;;;;;;;;;;;;;;2204598;59;3787;-19
2023/11/07 10:16:51;;;;;;;;;;;;;;;;;;2203501;59;3953;-19
2023/11/07 10:19:22;;;;;;;;;;;;;;;;;;2203591;59;3764;-19
2023/11/07 10:21:52;;;;;;;;;;;;;;;;;;2206849;59;2722;-19
2023/11/07 10:24:23;;;;;;;;;;;;;;;;;;2203586;62;3305;-19
2023/11/07 10:26:58;;;;;;;;;;;;;;;;;;2206070;59;2988;-19
2023/11/07 10:29:34;;;;;;;;;;;;;;;;;;2204823;59;2810;-19
2023/11/07 10:32:07;;;;;;;;;;;;;;;;;;2202738;59;2924;-19
2023/11/07 10:34:39;;;;;;;;;;;;;;;;;;2205094;63;3124;-19
2023/11/07 10:37:10;;;;;;;;;;;;;;;;;;2204544;59;2632;-19
2023/11/07 10:39:53;;;;;;;;;;;;;;;;;;2204096;59;3200;-19
2023/11/07 10:42:26;;;;;;;;;;;;;;;;;;2203415;59;2263;-19
2023/11/07 10:45:10;;;;;;;;;;;;;;;;;;2203993;59;2654;-19
2023/11/07 10:47:41;;;;;;;;;;;;;;;;;;2204588;67;3768;-19
2023/11/07 10:50:17;;;;;;;;;;;;;;;;;;2204086;59;2225;-19
2023/11/07 10:52:47;;;;;;;;;;;;;;;;;;2207130;59;3592;-21
2023/11/07 10:55:18;;;;;;;;;;;;;;;;;;2202540;59;2215;-21
2023/11/07 10:57:53;;;;;;;;;;;;;;;;;;2203193;59;3062;-21
2023/11/07 11:00:28;;;;;;;;;;;;;;;;;;2203800;59;3173;-21
2023/11/07 11:02:59;;;;;;;;;;;;;;;;;;2196030;59;38617;-21
2023/11/07 11:05:33;;;;;;;;;;;;;;;;;;2190619;59;3311;-21
2023/11/07 11:08:04;;;;;;;;;;;;;;;;;;2193199;67;3388;-21
2023/11/07 11:10:35;;;;;;;;;;;;;;;;;;2193660;59;2365;-20
2023/11/07 11:13:07;;;;;;;;;;;;;;;;;;2191633;59;2349;-21
2023/11/07 11:15:37;;;;;;;;;;;;;;;;;;2189982;67;2483;-20
2023/11/07 11:18:10;;;;;;;;;;;;;;;;;;2192907;59;2366;-21
2023/11/07 11:20:56;;;;;;;;;;;;;;;;;;2193039;67;3623;-21
2023/11/07 11:23:36;;;;;;;;;;;;;;;;;;2191795;67;3715;-21
2023/11/07 11:26:10;;;;;;;;;;;;;;;;;;2188293;59;3571;-21
2023/11/07 11:28:42;;;;;;;;;;;;;;;;;;2192936;59;2428;-20
2023/11/07 11:31:14;;;;;;;;;;;;;;;;;;2191981;59;2609;-21
2023/11/07 11:33:46;;;;;;;;;;;;;;;;;;2191879;59;2840;-21
2023/11/07 11:36:38;;;;;;;;;;;;;;;;;;2188720;59;2757;-21
2023/11/07 11:39:37;;;;;;;;;;;;;;;;;;2188313;59;2476;-21
2023/11/07 11:42:09;;;;;;;;;;;;;;;;;;2192717;59;2068;-21
2023/11/07 11:44:40;;;;;;;;;;;;;;;;;;2192819;59;2970;-21
2023/11/07 11:47:30;;;;;;;;;;;;;;;;;;2190647;59;3011;-21
2023/11/07 11:50:13;;;;;;;;;;;;;;;;;;2193839;60;3938;-20
2023/11/07 11:52:43;;;;;;;;;;;;;;;;;;2194239;59;3340;-21
2023/11/07 11:55:15;;;;;;;;;;;;;;;;;;2188628;67;3611;-20
2023/11/07 11:58:09;;;;;;;;;;;;;;;;;;2194354;59;3730;-21
2023/11/07 12:00:39;;;;;;;;;;;;;;;;;;2193978;67;2663;-21
2023/11/07 12:03:16;;;;;;;;;;;;;;;;;;2191812;59;4518;-21
2023/11/07 12:05:59;;;;;;;;;;;;;;;;;;2193371;67;2201;-21
2023/11/07 12:08:34;;;;;;;;;;;;;;;;;;2191969;59;2464;-21
2023/11/07 12:11:05;;;;;;;;;;;;;;;;;;2194016;59;3541;-19
2023/11/07 12:13:36;;;;;;;;;;;;;;;;;;2192370;59;2533;-19
2023/11/07 12:16:19;;;;;;;;;;;;;;;;;;2191918;67;2743;-18
2023/11/07 12:18:52;;;;;;;;;;;;;;;;;;2192948;59;3775;-18
2023/11/07 12:21:24;;;;;;;;;;;;;;;;;;2193271;59;2293;-19
2023/11/07 12:23:57;;;;;;;;;;;;;;;;;;2194167;59;1985;-18
2023/11/07 12:26:37;;;;;;;;;;;;;;;;;;2191431;59;3145;-19
2023/11/07 12:29:08;;;;;;;;;;;;;;;;;;2193372;59;4227;-18
2023/11/07 12:31:39;;;;;;;;;;;;;;;;;;2194358;59;4241;-19
2023/11/07 12:34:09;;;;;;;;;;;;;;;;;;2192423;59;2146;-19
2023/11/07 12:36:40;;;;;;;;;;;;;;;;;;2192597;59;2667;-19
2023/11/07 12:39:11;;;;;;;;;;;;;;;;;;2192662;59;2337;-19
2023/11/07 12:41:42;;;;;;;;;;;;;;;;;;2194018;59;2102;-19
2023/11/07 12:44:13;;;;;;;;;;;;;;;;;;2191547;59;2715;-19
2023/11/07 12:46:43;;;;;;;;;;;;;;;;;;2193261;67;3182;-19
2023/11/07 12:49:17;;;;;;;;;;;;;;;;;;2189008;59;3403;-19
2023/11/07 12:51:47;;;;;;;;;;;;;;;;;;2193414;59;3920;-19
2023/11/07 12:54:25;;;;;;;;;;;;;;;;;;2191967;59;2010;-19
2023/11/07 12:56:55;;;;;;;;;;;;;;;;;;2192511;59;2100;-27
2023/11/07 12:59:26;;;;;;;;;;;;;;;;;;2193024;60;3039;-19
2023/11/07 13:01:56;;;;;;;;;;;;;;;;;;2193065;59;2557;-19
2023/11/07 13:04:27;;;;;;;;;;;;;;;;;;2192420;60;2581;-19
2023/11/07 13:06:58;;;;;;;;;;;;;;;;;;2193248;59;2885;-19
2023/11/07 13:09:29;;;;;;;;;;;;;;;;;;2193209;59;2552;-18
2023/11/07 13:12:14;;;;;;;;;;;;;;;;;;2194406;67;2453;-18
2023/11/07 13:14:47;;;;;;;;;;;;;;;;;;2193311;59;3640;-18
2023/11/07 13:17:18;;;;;;;;;;;;;;;;;;2191215;59;2772;-18
2023/11/07 13:19:50;;;;;;;;;;;;;;;;;;2194308;60;3533;-19
2023/11/07 13:22:20;;;;;;;;;;;;;;;;;;2193476;59;2385;-18
2023/11/07 13:24:51;;;;;;;;;;;;;;;;;;2193543;59;2539;-18
2023/11/07 13:27:23;;;;;;;;;;;;;;;;;;2192257;59;3651;-19
2023/11/07 13:29:53;;;;;;;;;;;;;;;;;;2194024;59;3383;-19
2023/11/07 13:32:24;;;;;;;;;;;;;;;;;;2193287;59;2914;-18
2023/11/07 13:34:56;;;;;;;;;;;;;;;;;;2193285;59;2355;-18
2023/11/07 13:37:27;;;;;;;;;;;;;;;;;;2190128;59;2665;-18
2023/11/07 13:39:58;;;;;;;;;;;;;;;;;;2193823;59;2866;-18
2023/11/07 13:42:28;;;;;;;;;;;;;;;;;;2191966;59;3944;-19
2023/11/07 13:44:58;;;;;;;;;;;;;;;;;;2191477;59;2711;-18
2023/11/07 13:47:28;;;;;;;;;;;;;;;;;;2191908;59;2937;-18
2023/11/07 13:49:59;;;;;;;;;;;;;;;;;;2193131;59;4325;-18
2023/11/07 13:52:30;;;;;;;;;;;;;;;;;;2191399;59;2839;-18
2023/11/07 13:55:00;;;;;;;;;;;;;;;;;;2189145;67;3224;-19
2023/11/07 13:57:31;;;;;;;;;;;;;;;;;;2193719;59;2874;-18
2023/11/07 14:00:02;;;;;;;;;;;;;;;;;;2194234;59;3763;-18
2023/11/07 14:02:33;;;;;;;;;;;;;;;;;;2192763;59;3256;-18
2023/11/07 14:05:05;;;;;;;;;;;;;;;;;;2192116;59;3687;-20
2023/11/07 14:07:35;;;;;;;;;;;;;;;;;;2194514;59;3394;-20
2023/11/07 14:10:10;;;;;;;;;;;;;;;;;;2192116;59;3459;-20
2023/11/07 14:12:40;;;;;;;;;;;;;;;;;;2193679;59;3607;-20
2023/11/07 14:15:12;;;;;;;;;;;;;;;;;;2191713;59;3307;-20
2023/11/07 14:17:43;;;;;;;;;;;;;;;;;;2193029;59;2562;-20
2023/11/07 14:20:15;;;;;;;;;;;;;;;;;;2192791;59;2970;-20
2023/11/07 14:22:46;;;;;;;;;;;;;;;;;;2194200;59;3763;-20
2023/11/07 14:25:17;;;;;;;;;;;;;;;;;;2192454;60;2640;-20
2023/11/07 14:27:47;;;;;;;;;;;;;;;;;;2194627;59;2332;-20
2023/11/07 14:30:18;;;;;;;;;;;;;;;;;;2192082;59;2701;-18
2023/11/07 14:32:48;;;;;;;;;;;;;;;;;;2192459;59;3282;-18
2023/11/07 14:35:19;;;;;;;;;;;;;;;;;;2192293;59;3222;-18
2023/11/07 14:37:50;;;;;;;;;;;;;;;;;;2192129;59;3509;-18
2023/11/07 14:40:21;;;;;;;;;;;;;;;;;;2193802;59;2731;-18
2023/11/07 14:42:54;;;;;;;;;;;;;;;;;;2195391;59;3882;-18
2023/11/07 14:45:25;;;;;;;;;;;;;;;;;;2189205;59;2827;-18
2023/11/07 14:47:55;;;;;;;;;;;;;;;;;;2191648;59;3038;-18
2023/11/07 14:50:25;;;;;;;;;;;;;;;;;;2191788;59;3469;-18
2023/11/07 14:52:57;;;;;;;;;;;;;;;;;;2194537;59;2729;-18
2023/11/07 14:55:28;;;;;;;;;;;;;;;;;;2192275;59;2933;-18
2023/11/07 14:57:58;;;;;;;;;;;;;;;;;;2194227;59;2640;-20
2023/11/07 15:00:30;;;;;;;;;;;;;;;;;;2192864;63;3343;-20
2023/11/07 15:03:00;;;;;;;;;;;;;;;;;;2194667;59;2536;-20
2023/11/07 15:05:34;;;;;;;;;;;;;;;;;;2193429;67;2477;-20
2023/11/07 15:08:06;;;;;;;;;;;;;;;;;;2194594;59;2542;-20
2023/11/07 15:10:36;;;;;;;;;;;;;;;;;;2191307;59;2814;-18
2023/11/07 15:13:07;;;;;;;;;;;;;;;;;;2192878;59;2164;-20
2023/11/07 15:15:39;;;;;;;;;;;;;;;;;;2191309;59;2444;-18
2023/11/07 15:18:09;;;;;;;;;;;;;;;;;;2192294;59;2376;-18
2023/11/07 15:20:42;;;;;;;;;;;;;;;;;;2192763;59;2633;-18
2023/11/07 15:23:13;;;;;;;;;;;;;;;;;;2194056;59;2398;-20
2023/11/07 15:25:44;;;;;;;;;;;;;;;;;;2192655;59;2549;-20
2023/11/07 15:28:15;;;;;;;;;;;;;;;;;;2194043;59;2569;-18
2023/11/07 15:30:45;;;;;;;;;;;;;;;;;;2193852;59;4058;-20
2023/11/07 15:33:16;;;;;;;;;;;;;;;;;;2193763;59;3164;-20
2023/11/07 15:35:46;;;;;;;;;;;;;;;;;;2192628;59;3123;-20
2023/11/07 15:38:16;;;;;;;;;;;;;;;;;;2194521;59;2428;-18
2023/11/07 15:40:47;;;;;;;;;;;;;;;;;;2194098;59;2606;-20
2023/11/07 15:43:17;;;;;;;;;;;;;;;;;;2193208;59;2718;-20
2023/11/07 15:45:48;;;;;;;;;;;;;;;;;;2191651;59;2684;-18
2023/11/07 15:48:18;;;;;;;;;;;;;;;;;;2193633;59;2603;-18
2023/11/07 15:50:49;;;;;;;;;;;;;;;;;;2193713;59;2642;-20
2023/11/07 15:53:20;;;;;;;;;;;;;;;;;;2193931;59;2805;-20
2023/11/07 15:55:50;;;;;;;;;;;;;;;;;;2192872;59;2752;-20
2023/11/07 15:58:20;;;;;;;;;;;;;;;;;;2192894;59;2583;-21
2023/11/07 16:00:50;;;;;;;;;;;;;;;;;;2193246;59;2634;-20
2023/11/07 16:03:21;;;;;;;;;;;;;;;;;;2189910;59;2721;-20
2023/11/07 16:05:51;;;;;;;;;;;;;;;;;;2193114;59;2739;-20
2023/11/07 16:08:21;;;;;;;;;;;;;;;;;;2191705;59;2665;-18
2023/11/07 16:10:52;;;;;;;;;;;;;;;;;;2193107;59;2563;-18
2023/11/07 16:13:22;;;;;;;;;;;;;;;;;;2187728;59;2507;-18
2023/11/07 16:15:52;;;;;;;;;;;;;;;;;;2193048;59;2687;-18
2023/11/07 16:18:26;;;;;;;;;;;;;;;;;;2193398;59;2573;-18
2023/11/07 16:20:57;;;;;;;;;;;;;;;;;;2192739;59;2676;-20
2023/11/07 16:23:27;;;;;;;;;;;;;;;;;;2192237;59;2004;-20
2023/11/07 16:25:59;;;;;;;;;;;;;;;;;;2193611;59;2293;-18
2023/11/07 16:28:29;;;;;;;;;;;;;;;;;;2193380;59;3592;-18
2023/11/07 16:30:59;;;;;;;;;;;;;;;;;;2193899;59;2792;-20
2023/11/07 16:33:30;;;;;;;;;;;;;;;;;;2192248;59;2660;-18
2023/11/07 16:36:00;;;;;;;;;;;;;;;;;;2191464;59;2197;-18
2023/11/07 16:38:30;;;;;;;;;;;;;;;;;;2193186;59;2734;-18
2023/11/07 16:41:01;;;;;;;;;;;;;;;;;;2194154;59;2689;-18
2023/11/07 16:43:31;;;;;;;;;;;;;;;;;;2191969;59;2033;-20
2023/11/07 16:46:02;;;;;;;;;;;;;;;;;;2189080;59;2879;-18
2023/11/07 16:48:33;;;;;;;;;;;;;;;;;;2192209;59;2028;-18
2023/11/07 16:51:03;;;;;;;;;;;;;;;;;;2193928;59;2688;-20
2023/11/07 16:53:33;;;;;;;;;;;;;;;;;;2192279;59;3739;-18
2023/11/07 16:56:04;;;;;;;;;;;;;;;;;;2194329;59;2068;-18
2023/11/07 16:58:35;;;;;;;;;;;;;;;;;;2193377;59;2640;-18
2023/11/07 17:01:06;;;;;;;;;;;;;;;;;;2194576;59;1810;-20
2023/11/07 17:03:37;;;;;;;;;;;;;;;;;;2191957;59;2774;-18
2023/11/07 17:06:08;;;;;;;;;;;;;;;;;;2191862;67;3082;-18
2023/11/07 17:08:38;;;;;;;;;;;;;;;;;;2193131;59;2686;-20
2023/11/07 17:11:08;;;;;;;;;;;;;;;;;;2193444;59;2985;-18
2023/11/07 17:13:39;;;;;;;;;;;;;;;;;;2193082;67;3646;-18
2023/11/07 17:16:09;;;;;;;;;;;;;;;;;;2193698;67;2846;-20
2023/11/07 17:18:40;;;;;;;;;;;;;;;;;;2192065;59;2595;-18
2023/11/07 17:21:11;;;;;;;;;;;;;;;;;;2194159;67;2739;-18
2023/11/07 17:23:41;;;;;;;;;;;;;;;;;;2192315;67;2534;-20
2023/11/07 17:26:11;;;;;;;;;;;;;;;;;;2193684;60;2541;-18
2023/11/07 17:28:42;;;;;;;;;;;;;;;;;;2192686;59;2494;-18
2023/11/07 17:31:13;;;;;;;;;;;;;;;;;;2194491;59;3577;-18